createdAt,value
2018-03-11T00:01:18.333Z,91.00
2018-03-11T00:03:46.158Z,91.00
2018-03-11T00:06:13.703Z,91.00
2018-03-11T00:08:41.459Z,91.00
2018-03-11T00:11:09.082Z,91.00
2018-03-11T00:13:37.396Z,90.90
2018-03-11T00:16:05.304Z,90.90
2018-03-11T00:18:32.864Z,91.00
2018-03-11T00:21:00.439Z,91.00
2018-03-11T00:23:27.954Z,91.30
2018-03-11T00:25:56.443Z,90.90
2018-03-11T00:28:24.035Z,90.90
2018-03-11T00:30:51.983Z,90.90
2018-03-11T00:33:19.724Z,90.90
2018-03-11T00:35:47.227Z,90.90
2018-03-11T00:38:14.840Z,90.90
2018-03-11T00:40:42.454Z,90.90
2018-03-11T00:43:09.997Z,90.90
2018-03-11T00:45:37.512Z,90.90
2018-03-11T00:48:05.164Z,90.80
2018-03-11T00:50:33.547Z,90.80
2018-03-11T00:53:01.128Z,90.80
2018-03-11T00:55:28.692Z,90.80
2018-03-11T00:57:56.286Z,90.80
2018-03-11T01:00:23.866Z,90.80
2018-03-11T01:02:53.477Z,90.60
2018-03-11T01:05:21.807Z,90.80
2018-03-11T01:07:49.361Z,90.80
2018-03-11T01:10:16.886Z,90.70
2018-03-11T01:12:45.165Z,90.60
2018-03-11T01:15:14.087Z,90.50
2018-03-11T01:17:41.840Z,90.50
2018-03-11T01:20:09.379Z,90.50
2018-03-11T01:22:37.210Z,90.50
2018-03-11T01:25:04.763Z,90.40
2018-03-11T01:27:32.287Z,90.20
2018-03-11T01:29:59.795Z,90.10
2018-03-11T01:32:27.426Z,90.00
2018-03-11T01:34:54.922Z,90.00
2018-03-11T01:37:23.246Z,90.20
2018-03-11T01:39:50.942Z,90.00
2018-03-11T01:42:18.563Z,89.90
2018-03-11T01:44:46.263Z,90.00
2018-03-11T01:47:13.784Z,89.90
2018-03-11T01:49:41.284Z,90.00
2018-03-11T01:52:08.832Z,89.80
2018-03-11T01:54:36.339Z,89.80
2018-03-11T01:57:03.866Z,89.90
2018-03-11T01:59:31.397Z,90.00
2018-03-11T02:01:58.955Z,90.00
2018-03-11T02:04:26.562Z,90.00
2018-03-11T02:06:54.690Z,90.00
2018-03-11T02:09:22.237Z,90.00
2018-03-11T02:11:49.781Z,90.00
2018-03-11T02:14:17.484Z,90.10
2018-03-11T02:16:44.981Z,90.10
2018-03-11T02:19:13.122Z,90.10
2018-03-11T02:21:41.433Z,90.30
2018-03-11T02:24:09.057Z,90.60
2018-03-11T02:26:36.692Z,90.40
2018-03-11T02:29:04.225Z,90.50
2018-03-11T02:31:31.891Z,92.60
2018-03-11T02:33:59.414Z,91.60
2018-03-11T02:36:26.937Z,90.80
2018-03-11T02:38:54.489Z,90.70
2018-03-11T02:41:22.145Z,90.50
2018-03-11T02:43:49.648Z,90.40
2018-03-11T02:46:17.172Z,90.50
2018-03-11T02:48:45.471Z,90.60
2018-03-11T02:51:13.000Z,90.70
2018-03-11T02:53:40.525Z,90.80
2018-03-11T02:56:08.864Z,91.20
2018-03-11T02:58:36.386Z,90.90
2018-03-11T03:01:04.287Z,91.00
2018-03-11T03:03:31.789Z,91.10
2018-03-11T03:05:59.679Z,91.20
2018-03-11T03:08:27.245Z,91.20
2018-03-11T03:10:55.251Z,91.20
2018-03-11T03:13:23.202Z,91.30
2018-03-11T03:15:50.724Z,91.40
2018-03-11T03:18:18.281Z,91.50
2018-03-11T03:20:46.104Z,91.60
2018-03-11T03:23:14.073Z,91.50
2018-03-11T03:25:41.672Z,91.60
2018-03-11T03:28:09.254Z,91.70
2018-03-11T03:30:36.846Z,91.70
2018-03-11T03:33:04.417Z,91.70
2018-03-11T03:35:31.933Z,91.80
2018-03-11T03:37:59.482Z,91.80
2018-03-11T03:40:27.498Z,91.90
2018-03-11T03:42:55.158Z,92.00
2018-03-11T03:45:22.932Z,91.80
2018-03-11T03:47:50.504Z,92.30
2018-03-11T03:50:18.038Z,92.00
2018-03-11T03:52:45.551Z,92.00
2018-03-11T03:55:13.875Z,92.00
2018-03-11T03:57:41.436Z,92.10
2018-03-11T04:00:08.983Z,92.00
2018-03-11T04:02:36.899Z,92.10
2018-03-11T04:05:04.406Z,92.10
2018-03-11T04:07:32.078Z,92.00
2018-03-11T04:09:59.626Z,92.30
2018-03-11T04:12:27.202Z,92.40
2018-03-11T04:14:54.745Z,92.40
2018-03-11T04:17:22.324Z,92.40
2018-03-11T04:19:49.847Z,92.50
2018-03-11T04:22:18.727Z,92.60
2018-03-11T04:24:46.246Z,92.50
2018-03-11T04:27:13.758Z,92.60
2018-03-11T04:29:42.174Z,92.60
2018-03-11T04:32:09.744Z,92.60
2018-03-11T04:34:37.818Z,92.60
2018-03-11T04:37:05.648Z,92.70
2018-03-11T04:39:33.911Z,92.60
2018-03-11T04:42:01.438Z,92.70
2018-03-11T04:44:28.964Z,93.10
2018-03-11T04:46:56.506Z,92.80
2018-03-11T04:49:24.112Z,92.80
2018-03-11T04:51:51.782Z,92.90
2018-03-11T04:54:20.823Z,92.80
2018-03-11T04:56:48.331Z,92.90
2018-03-11T04:59:16.044Z,92.90
2018-03-11T05:01:43.758Z,93.10
2018-03-11T05:04:11.349Z,93.00
2018-03-11T05:06:39.647Z,93.10
2018-03-11T05:09:07.326Z,93.10
2018-03-11T05:11:35.188Z,93.20
2018-03-11T05:14:02.807Z,93.20
2018-03-11T05:16:30.320Z,93.30
2018-03-11T05:18:57.846Z,93.30
2018-03-11T05:21:26.302Z,93.40
2018-03-11T05:23:54.029Z,93.30
2018-03-11T05:26:21.613Z,93.40
2018-03-11T05:28:49.167Z,93.40
2018-03-11T05:31:16.797Z,93.40
2018-03-11T05:33:44.297Z,93.30
2018-03-11T05:36:11.843Z,93.40
2018-03-11T05:38:39.343Z,93.30
2018-03-11T05:41:07.623Z,93.20
2018-03-11T05:43:35.147Z,93.20
2018-03-11T05:46:02.699Z,93.10
2018-03-11T05:48:30.536Z,93.20
2018-03-11T05:50:58.094Z,93.10
2018-03-11T05:53:25.677Z,93.00
2018-03-11T05:55:54.027Z,92.80
2018-03-11T05:58:21.552Z,92.70
2018-03-11T06:00:49.916Z,91.30
2018-03-11T06:03:17.426Z,90.40
2018-03-11T06:05:45.888Z,86.30
2018-03-11T06:08:14.184Z,81.60
2018-03-11T06:10:41.961Z,81.60
2018-03-11T06:13:09.548Z,79.30
2018-03-11T06:15:37.171Z,77.70
2018-03-11T06:18:06.692Z,74.50
2018-03-11T06:20:34.135Z,75.30
2018-03-11T06:23:01.831Z,73.70
2018-03-11T06:25:29.386Z,72.60
2018-03-11T06:27:57.145Z,71.40
2018-03-11T06:30:24.680Z,69.90
2018-03-11T06:32:52.292Z,69.80
2018-03-11T06:35:19.828Z,70.40
2018-03-11T06:37:47.408Z,70.00
2018-03-11T06:40:14.994Z,68.30
2018-03-11T06:42:43.339Z,66.60
2018-03-11T06:45:10.971Z,66.60
2018-03-11T06:47:38.651Z,66.00
2018-03-11T06:50:06.160Z,64.90
2018-03-11T06:52:34.584Z,63.90
2018-03-11T06:55:02.108Z,63.90
2018-03-11T06:57:29.734Z,63.60
2018-03-11T06:59:57.369Z,62.70
2018-03-11T07:02:24.961Z,61.70
2018-03-11T07:04:52.470Z,62.20
2018-03-11T07:07:20.135Z,60.40
2018-03-11T07:09:47.848Z,60.10
2018-03-11T07:12:15.487Z,60.50
2018-03-11T07:14:43.023Z,59.20
2018-03-11T07:17:10.667Z,58.90
2018-03-11T07:19:39.202Z,59.40
2018-03-11T07:22:06.818Z,59.40
2018-03-11T07:24:34.308Z,58.50
2018-03-11T07:27:01.873Z,58.60
2018-03-11T07:29:29.460Z,59.30
2018-03-11T07:31:57.173Z,58.80
2018-03-11T07:34:24.898Z,58.20
2018-03-11T07:36:52.433Z,58.20
2018-03-11T07:39:19.996Z,58.50
2018-03-11T07:41:48.371Z,58.10
2018-03-11T07:44:15.927Z,59.90
2018-03-11T07:46:43.591Z,58.20
2018-03-11T07:49:11.492Z,58.40
2018-03-11T07:51:38.993Z,58.50
2018-03-11T07:54:06.580Z,58.80
2018-03-11T07:56:34.112Z,59.60
2018-03-11T07:59:01.676Z,59.70
2018-03-11T08:01:29.645Z,60.30
2018-03-11T08:03:57.292Z,61.10
2018-03-11T08:06:24.792Z,61.70
2018-03-11T08:08:52.729Z,61.90
2018-03-11T08:11:20.258Z,64.20
2018-03-11T08:13:47.812Z,64.60
2018-03-11T08:16:15.347Z,63.90
2018-03-11T08:18:42.911Z,64.40
2018-03-11T08:21:10.544Z,65.00
2018-03-11T08:23:38.160Z,63.60
2018-03-11T08:26:05.710Z,64.00
2018-03-11T08:28:33.432Z,64.30
2018-03-11T08:31:00.938Z,64.20
2018-03-11T08:33:29.227Z,64.20
2018-03-11T08:35:57.161Z,64.10
2018-03-11T08:38:24.708Z,64.90
2018-03-11T08:40:52.755Z,64.80
2018-03-11T08:43:20.405Z,64.90
2018-03-11T08:45:48.045Z,64.20
2018-03-11T08:48:16.888Z,65.20
2018-03-11T08:50:44.404Z,65.20
2018-03-11T08:53:12.100Z,66.60
2018-03-11T08:55:39.658Z,68.30
2018-03-11T08:58:07.313Z,68.30
2018-03-11T09:00:34.837Z,66.90
2018-03-11T09:03:02.405Z,68.50
2018-03-11T09:05:29.956Z,68.90
2018-03-11T09:07:57.495Z,69.10
2018-03-11T09:10:25.342Z,67.80
2018-03-11T09:12:53.482Z,68.00
2018-03-11T09:15:21.043Z,68.50
2018-03-11T09:17:48.561Z,68.70
2018-03-11T09:20:17.085Z,68.80
2018-03-11T09:22:44.748Z,68.70
2018-03-11T09:25:12.350Z,68.90
2018-03-11T09:27:40.459Z,69.30
2018-03-11T09:30:08.348Z,69.80
2018-03-11T09:32:36.178Z,67.10
2018-03-11T09:35:03.729Z,66.70
2018-03-11T09:37:31.313Z,64.80
2018-03-11T09:39:59.818Z,65.40
2018-03-11T09:42:27.351Z,65.40
2018-03-11T09:44:54.920Z,65.60
2018-03-11T09:47:22.571Z,66.80
2018-03-11T09:49:50.956Z,67.60
2018-03-11T09:52:18.859Z,67.70
2018-03-11T09:54:46.414Z,67.70
2018-03-11T09:57:13.981Z,67.50
2018-03-11T09:59:41.527Z,67.80
2018-03-11T10:02:09.096Z,67.90
2018-03-11T10:04:36.668Z,69.10
2018-03-11T10:07:04.285Z,68.60
2018-03-11T10:09:31.900Z,68.30
2018-03-11T10:11:59.622Z,68.20
2018-03-11T10:14:27.320Z,68.00
2018-03-11T10:16:54.924Z,68.30
2018-03-11T10:19:22.722Z,67.50
2018-03-11T10:21:50.460Z,67.60
2018-03-11T10:24:18.160Z,67.00
2018-03-11T10:26:45.659Z,67.60
2018-03-11T10:29:15.088Z,68.00
2018-03-11T10:31:42.650Z,67.80
2018-03-11T10:34:10.242Z,68.10
2018-03-11T10:36:37.739Z,67.40
2018-03-11T10:39:05.328Z,67.80
2018-03-11T10:41:32.874Z,68.10
2018-03-11T10:44:00.518Z,67.40
2018-03-11T10:46:29.063Z,67.60
2018-03-11T10:48:56.636Z,67.00
2018-03-11T10:51:24.224Z,67.00
2018-03-11T10:53:52.155Z,66.40
2018-03-11T10:56:19.795Z,67.10
2018-03-11T10:58:47.314Z,65.90
2018-03-11T11:01:14.854Z,66.40
2018-03-11T11:03:48.347Z,66.40
2018-03-11T11:06:15.928Z,65.20
2018-03-11T11:08:43.851Z,64.70
2018-03-11T11:11:11.521Z,64.80
2018-03-11T11:13:39.104Z,63.90
2018-03-11T11:16:07.020Z,62.70
2018-03-11T11:18:34.687Z,62.00
2018-03-11T11:21:02.284Z,61.90
2018-03-11T11:23:29.783Z,61.20
2018-03-11T11:25:57.533Z,60.90
2018-03-11T11:28:25.052Z,59.80
2018-03-11T11:30:52.637Z,59.30
2018-03-11T11:33:20.182Z,59.90
2018-03-11T11:35:48.183Z,59.30
2018-03-11T11:38:16.357Z,59.00
2018-03-11T11:40:43.911Z,59.00
2018-03-11T11:43:11.936Z,59.80
2018-03-11T11:45:39.471Z,58.70
2018-03-11T11:48:07.373Z,58.10
2018-03-11T11:50:34.973Z,58.00
2018-03-11T11:53:04.006Z,58.30
2018-03-11T11:55:31.753Z,58.30
2018-03-11T11:57:59.286Z,58.60
2018-03-11T12:00:26.936Z,58.60
2018-03-11T12:02:54.581Z,58.00
2018-03-11T12:05:22.183Z,57.90
2018-03-11T12:07:49.815Z,57.70
2018-03-11T12:10:17.633Z,58.50
2018-03-11T12:12:45.458Z,59.90
2018-03-11T12:15:13.977Z,61.40
2018-03-11T12:17:42.456Z,61.70
2018-03-11T12:20:14.245Z,61.60
2018-03-11T12:22:41.805Z,63.00
2018-03-11T12:25:09.393Z,62.80
2018-03-11T12:27:37.216Z,63.00
2018-03-11T12:30:05.036Z,63.90
2018-03-11T12:32:32.603Z,64.30
2018-03-11T12:35:00.279Z,64.20
2018-03-11T12:37:28.704Z,65.40
2018-03-11T12:39:57.882Z,64.90
2018-03-11T12:42:25.781Z,64.80
2018-03-11T12:44:53.765Z,65.50
2018-03-11T12:47:21.348Z,64.60
2018-03-11T12:49:48.953Z,64.10
2018-03-11T12:52:16.556Z,64.20
2018-03-11T12:54:44.956Z,64.40
2018-03-11T12:57:13.292Z,63.80
2018-03-11T12:59:40.849Z,63.80
2018-03-11T13:02:08.638Z,62.40
2018-03-11T13:04:36.171Z,61.70
2018-03-11T13:07:03.865Z,62.50
2018-03-11T13:09:31.400Z,61.40
2018-03-11T13:11:59.114Z,61.70
2018-03-11T13:14:27.465Z,62.00
2018-03-11T13:16:55.023Z,61.90
2018-03-11T13:19:22.695Z,61.00
2018-03-11T13:21:50.265Z,60.90
2018-03-11T13:24:17.972Z,60.10
2018-03-11T13:26:45.544Z,60.20
2018-03-11T13:29:13.205Z,60.70
2018-03-11T13:31:40.806Z,60.30
2018-03-11T13:34:14.228Z,60.10
2018-03-11T13:36:41.965Z,60.20
2018-03-11T13:39:21.435Z,59.80
2018-03-11T13:41:49.080Z,60.60
2018-03-11T13:44:16.628Z,60.00
2018-03-11T13:46:56.880Z,60.80
2018-03-11T13:49:25.978Z,60.50
2018-03-11T13:52:05.317Z,60.50
2018-03-11T13:54:33.289Z,60.80
2018-03-11T13:57:12.935Z,61.20
2018-03-11T13:59:40.547Z,62.30
2018-03-11T14:02:08.264Z,60.90
2018-03-11T14:04:35.914Z,60.70
2018-03-11T14:07:03.474Z,60.70
2018-03-11T14:09:31.044Z,60.50
2018-03-11T14:11:58.592Z,60.40
2018-03-11T14:14:26.488Z,60.40
2018-03-11T14:16:54.042Z,60.50
2018-03-11T14:19:21.587Z,60.60
2018-03-11T14:21:49.144Z,61.00
2018-03-11T14:24:16.966Z,61.20
2018-03-11T14:26:44.565Z,61.40
2018-03-11T14:29:12.169Z,62.10
2018-03-11T14:31:39.786Z,61.50
2018-03-11T14:34:07.448Z,61.70
2018-03-11T14:36:35.009Z,62.10
2018-03-11T14:39:02.737Z,61.80
2018-03-11T14:41:30.302Z,61.80
2018-03-11T14:43:57.973Z,62.80
2018-03-11T14:46:25.529Z,62.10
2018-03-11T14:48:53.119Z,61.90
2018-03-11T14:51:20.687Z,61.90
2018-03-11T14:53:48.573Z,62.00
2018-03-11T14:56:16.154Z,61.90
2018-03-11T14:58:44.482Z,62.20
2018-03-11T15:01:11.996Z,62.20
2018-03-11T15:03:40.272Z,62.20
2018-03-11T15:06:07.983Z,62.20
2018-03-11T15:08:36.321Z,62.40
2018-03-11T15:11:04.110Z,62.60
2018-03-11T15:13:31.683Z,62.50
2018-03-11T15:15:59.213Z,62.50
2018-03-11T15:18:26.766Z,62.70
2018-03-11T15:20:54.617Z,63.10
2018-03-11T15:23:22.957Z,62.80
2018-03-11T15:25:51.245Z,62.80
2018-03-11T15:28:18.882Z,63.00
2018-03-11T15:30:46.512Z,63.60
2018-03-11T15:33:14.247Z,63.10
2018-03-11T15:35:43.739Z,63.10
2018-03-11T15:38:12.814Z,63.40
2018-03-11T15:40:40.537Z,63.30
2018-03-11T15:43:08.046Z,63.30
2018-03-11T15:45:35.580Z,64.10
2018-03-11T15:48:03.109Z,64.30
2018-03-11T15:50:31.005Z,64.30
2018-03-11T15:52:59.029Z,64.60
2018-03-11T15:55:27.390Z,65.00
2018-03-11T15:57:56.167Z,66.00
2018-03-11T16:00:24.206Z,65.30
2018-03-11T16:02:51.867Z,65.40
2018-03-11T16:05:19.485Z,65.80
2018-03-11T16:07:48.198Z,66.40
2018-03-11T16:10:15.782Z,66.40
2018-03-11T16:12:43.677Z,66.20
2018-03-11T16:15:12.088Z,66.60
2018-03-11T16:17:39.629Z,66.80
2018-03-11T16:20:07.979Z,67.20
2018-03-11T16:22:35.502Z,67.10
2018-03-11T16:25:03.495Z,67.30
2018-03-11T16:27:31.096Z,67.60
2018-03-11T16:29:58.972Z,67.60
2018-03-11T16:32:27.486Z,68.10
2018-03-11T16:34:55.040Z,68.10
2018-03-11T16:37:22.720Z,68.30
2018-03-11T16:39:50.672Z,68.40
2018-03-11T16:42:18.189Z,68.80
2018-03-11T16:44:45.777Z,69.10
2018-03-11T16:47:14.566Z,69.40
2018-03-11T16:49:43.050Z,69.40
2018-03-11T16:52:12.305Z,69.90
2018-03-11T16:54:39.925Z,69.90
2018-03-11T16:57:07.602Z,70.20
2018-03-11T16:59:35.399Z,70.50
2018-03-11T17:02:02.929Z,70.50
2018-03-11T17:04:30.497Z,70.70
2018-03-11T17:06:58.054Z,70.70
2018-03-11T17:09:25.664Z,71.00
2018-03-11T17:11:53.368Z,70.90
2018-03-11T17:14:20.906Z,70.80
2018-03-11T17:16:48.504Z,71.00
2018-03-11T17:19:16.096Z,70.90
2018-03-11T17:21:44.650Z,71.20
2018-03-11T17:24:12.197Z,71.10
2018-03-11T17:26:39.860Z,71.10
2018-03-11T17:29:07.588Z,71.00
2018-03-11T17:31:38.201Z,71.10
2018-03-11T17:34:08.913Z,70.90
2018-03-11T17:36:36.823Z,70.90
2018-03-11T17:39:05.255Z,71.20
2018-03-11T17:41:33.160Z,71.20
2018-03-11T17:44:00.726Z,71.50
2018-03-11T17:46:28.302Z,71.40
2018-03-11T17:48:56.034Z,71.30
2018-03-11T17:51:23.580Z,71.30
2018-03-11T17:53:51.105Z,71.30
2018-03-11T17:56:18.871Z,71.20
2018-03-11T17:58:46.491Z,71.20
2018-03-11T18:01:14.167Z,71.30
2018-03-11T18:03:41.737Z,72.20
2018-03-11T18:06:09.281Z,71.40
2018-03-11T18:08:37.607Z,71.70
2018-03-11T18:11:05.370Z,71.70
2018-03-11T18:13:32.947Z,71.90
2018-03-11T18:16:00.480Z,72.10
2018-03-11T18:18:28.128Z,72.30
2018-03-11T18:20:56.417Z,72.40
2018-03-11T18:23:24.487Z,72.50
2018-03-11T18:25:55.509Z,72.50
2018-03-11T18:28:23.722Z,72.60
2018-03-11T18:30:51.320Z,72.50
2018-03-11T18:33:19.664Z,72.40
2018-03-11T18:35:48.217Z,72.40
2018-03-11T18:38:15.743Z,72.50
2018-03-11T18:40:44.439Z,72.80
2018-03-11T18:43:12.756Z,72.40
2018-03-11T18:45:40.329Z,73.00
2018-03-11T18:48:08.116Z,72.60
2018-03-11T18:50:35.761Z,72.60
2018-03-11T18:53:03.354Z,72.40
2018-03-11T18:55:30.918Z,72.50
2018-03-11T18:57:58.572Z,72.50
2018-03-11T19:00:26.123Z,72.40
2018-03-11T19:02:53.693Z,72.40
2018-03-11T19:05:21.287Z,72.50
2018-03-11T19:07:48.878Z,72.50
2018-03-11T19:10:16.416Z,72.40
2018-03-11T19:12:43.938Z,72.40
2018-03-11T19:15:11.568Z,72.40
2018-03-11T19:17:39.135Z,72.70
2018-03-11T19:20:07.625Z,73.70
2018-03-11T19:22:35.440Z,72.80
2018-03-11T19:25:03.097Z,73.00
2018-03-11T19:27:30.775Z,73.00
2018-03-11T19:29:59.460Z,73.00
2018-03-11T19:32:27.247Z,73.00
2018-03-11T19:34:55.178Z,73.10
2018-03-11T19:37:23.564Z,73.10
2018-03-11T19:39:51.274Z,73.10
2018-03-11T19:42:19.125Z,73.30
2018-03-11T19:44:47.057Z,73.20
2018-03-11T19:47:14.789Z,73.20
2018-03-11T19:49:42.397Z,73.20
2018-03-11T19:52:10.278Z,73.30
2018-03-11T19:54:37.883Z,73.50
2018-03-11T19:57:05.697Z,73.50
2018-03-11T19:59:33.360Z,73.50
2018-03-11T20:02:01.424Z,73.40
2018-03-11T20:04:29.214Z,73.30
2018-03-11T20:06:56.768Z,73.40
2018-03-11T20:09:24.374Z,73.30
2018-03-11T20:11:52.064Z,73.20
2018-03-11T20:14:19.741Z,73.40
2018-03-11T20:16:47.398Z,73.20
2018-03-11T20:19:14.941Z,73.20
2018-03-11T20:21:42.503Z,73.20
2018-03-11T20:24:10.091Z,73.40
2018-03-11T20:26:37.633Z,73.30
2018-03-11T20:29:05.587Z,73.30
2018-03-11T20:31:33.431Z,73.10
2018-03-11T20:34:01.629Z,73.10
2018-03-11T20:36:30.057Z,73.10
2018-03-11T20:38:57.648Z,73.00
2018-03-11T20:41:25.377Z,72.90
2018-03-11T20:43:53.242Z,72.90
2018-03-11T20:46:21.098Z,72.80
2018-03-11T20:48:48.774Z,72.90
2018-03-11T20:51:16.641Z,72.70
2018-03-11T20:53:45.113Z,72.90
2018-03-11T20:56:12.891Z,72.90
2018-03-11T20:58:40.450Z,72.90
2018-03-11T21:01:08.057Z,73.20
2018-03-11T21:03:36.414Z,73.20
2018-03-11T21:06:04.253Z,73.20
2018-03-11T21:08:31.899Z,73.40
2018-03-11T21:10:59.580Z,73.50
2018-03-11T21:13:27.353Z,73.70
2018-03-11T21:15:54.927Z,73.60
2018-03-11T21:18:22.524Z,73.60
2018-03-11T21:20:50.224Z,73.70
2018-03-11T21:23:17.784Z,73.70
2018-03-11T21:25:46.165Z,73.70
2018-03-11T21:28:13.730Z,73.80
2018-03-11T21:30:41.470Z,73.80
2018-03-11T21:33:09.384Z,73.80
2018-03-11T21:35:37.010Z,73.90
2018-03-11T21:38:05.394Z,74.10
2018-03-11T21:40:36.678Z,74.10
2018-03-11T21:43:06.753Z,74.00
2018-03-11T21:45:35.650Z,74.00
2018-03-11T21:48:09.768Z,74.10
2018-03-11T21:50:38.878Z,74.10
2018-03-11T21:53:10.079Z,74.10
2018-03-11T21:55:39.756Z,74.00
2018-03-11T21:58:07.890Z,74.10
2018-03-11T22:00:40.569Z,74.00
2018-03-11T22:03:09.088Z,74.10
2018-03-11T22:05:38.604Z,74.30
2018-03-11T22:08:07.054Z,75.10
2018-03-11T22:10:36.072Z,74.40
2018-03-11T22:13:04.036Z,74.40
2018-03-11T22:15:32.964Z,74.50
2018-03-11T22:18:03.533Z,74.70
2018-03-11T22:20:31.994Z,74.70
2018-03-11T22:23:00.719Z,74.80
2018-03-11T22:25:29.036Z,74.80
2018-03-11T22:27:56.672Z,74.90
2018-03-11T22:30:24.287Z,74.90
2018-03-11T22:32:52.107Z,74.90
2018-03-11T22:35:19.633Z,75.10
2018-03-11T22:37:47.171Z,76.10
2018-03-11T22:40:15.259Z,75.30
2018-03-11T22:42:43.112Z,75.40
2018-03-11T22:45:11.248Z,75.50
2018-03-11T22:47:39.562Z,75.70
2018-03-11T22:50:07.061Z,75.70
2018-03-11T22:52:34.664Z,75.90
2018-03-11T22:55:02.209Z,75.80
2018-03-11T22:57:30.531Z,76.10
2018-03-11T22:59:58.057Z,76.10
2018-03-11T23:02:25.591Z,76.30
2018-03-11T23:04:53.175Z,76.10
2018-03-11T23:07:20.753Z,76.20
2018-03-11T23:09:48.308Z,76.40
2018-03-11T23:12:15.876Z,76.40
2018-03-11T23:14:43.412Z,76.30
2018-03-11T23:17:11.004Z,76.30
2018-03-11T23:19:38.523Z,76.60
2018-03-11T23:22:06.119Z,76.50
2018-03-11T23:24:33.635Z,76.40
2018-03-11T23:27:02.261Z,76.60
2018-03-11T23:29:29.794Z,76.60
2018-03-11T23:31:57.896Z,76.70
2018-03-11T23:34:25.698Z,76.80
2018-03-11T23:36:53.448Z,76.90
2018-03-11T23:39:20.940Z,76.90
2018-03-11T23:41:49.462Z,76.90
2018-03-11T23:44:17.424Z,76.90
2018-03-11T23:46:45.203Z,76.70
2018-03-11T23:49:12.715Z,76.80
2018-03-11T23:51:40.226Z,76.70
2018-03-11T23:54:08.342Z,76.80
2018-03-11T23:56:35.879Z,76.80
2018-03-11T23:59:03.402Z,77.00
